createdAt,value
2023-01-11T00:00:57.412Z,94400.25
2023-01-11T00:03:24.558Z,94372.75
2023-01-11T00:05:56.620Z,94358.38
2023-01-11T00:08:26.628Z,94411.63
2023-01-11T00:10:54.273Z,94407.41
2023-01-11T00:13:21.257Z,94412.03
2023-01-11T00:15:49.288Z,94343.25
2023-01-11T00:18:16.118Z,94350.28
2023-01-11T00:20:42.896Z,94368.22
2023-01-11T00:23:10.308Z,94353.44
2023-01-11T00:25:37.745Z,94410.59
2023-01-11T00:28:05.622Z,94412.94
2023-01-11T00:30:35.347Z,94413.69
2023-01-11T00:33:03.264Z,94308.44
2023-01-11T00:35:32.697Z,94370.44
2023-01-11T00:37:59.946Z,94426.13
2023-01-11T00:40:27.922Z,94353.50
2023-01-11T00:43:13.064Z,94312.50
2023-01-11T00:45:58.765Z,94371.28
2023-01-11T00:48:25.799Z,94426.75
2023-01-11T00:50:55.348Z,94350.06
2023-01-11T00:53:22.500Z,94433.22
2023-01-11T00:55:49.524Z,94359.97
2023-01-11T00:58:16.475Z,94414.13
2023-01-11T01:00:43.678Z,94398.78
2023-01-11T01:03:10.517Z,94401.47
2023-01-11T01:05:39.133Z,94430.94
2023-01-11T01:08:06.534Z,94429.34
2023-01-11T01:10:33.860Z,94425.97
2023-01-11T01:13:19.159Z,94416.50
2023-01-11T01:15:46.014Z,94443.22
2023-01-11T01:18:13.809Z,94435.00
2023-01-11T01:20:40.784Z,94388.50
2023-01-11T01:23:07.579Z,94409.38
2023-01-11T01:25:37.883Z,94439.81
2023-01-11T01:28:04.846Z,94420.16
2023-01-11T01:30:32.193Z,94412.38
2023-01-11T01:32:59.308Z,94381.34
2023-01-11T01:35:26.306Z,94377.41
2023-01-11T01:37:53.597Z,94419.06
2023-01-11T01:40:21.873Z,94383.72
2023-01-11T01:42:53.405Z,94453.72
2023-01-11T01:45:26.912Z,94446.84
2023-01-11T01:47:59.245Z,94444.81
2023-01-11T01:50:28.411Z,94438.69
2023-01-11T01:53:02.639Z,94370.53
2023-01-11T01:55:35.796Z,94433.06
2023-01-11T01:58:06.318Z,94402.34
2023-01-11T02:00:33.678Z,94448.94
2023-01-11T02:03:02.028Z,94447.19
2023-01-11T02:05:29.414Z,94343.84
2023-01-11T02:07:58.970Z,94387.75
2023-01-11T02:10:28.306Z,94454.81
2023-01-11T02:13:05.850Z,94364.28
2023-01-11T02:15:32.777Z,94425.41
2023-01-11T02:17:59.782Z,94456.88
2023-01-11T02:20:35.949Z,94397.34
2023-01-11T02:23:21.777Z,94437.19
2023-01-11T02:26:26.063Z,94478.31
2023-01-11T02:29:00.458Z,94488.53
2023-01-11T02:31:33.947Z,94494.91
2023-01-11T02:34:38.351Z,94485.84
2023-01-11T02:37:18.591Z,94480.66
2023-01-11T02:39:56.511Z,94468.59
2023-01-11T02:42:51.477Z,94501.19
2023-01-11T02:45:24.129Z,94519.50
2023-01-11T02:47:57.360Z,94501.22
2023-01-11T02:50:39.037Z,94494.16
2023-01-11T02:53:24.500Z,94509.91
2023-01-11T02:55:58.797Z,94508.13
2023-01-11T02:58:30.616Z,94522.59
2023-01-11T03:00:58.785Z,94498.69
2023-01-11T03:03:29.771Z,94517.91
2023-01-11T03:06:08.426Z,94524.25
2023-01-11T03:08:41.366Z,94523.84
2023-01-11T03:11:14.611Z,94478.50
2023-01-11T03:13:47.869Z,94526.22
2023-01-11T03:16:20.632Z,94498.50
2023-01-11T03:18:53.877Z,94528.16
2023-01-11T03:21:23.748Z,94538.38
2023-01-11T03:24:05.759Z,94531.72
2023-01-11T03:27:02.793Z,94532.09
2023-01-11T03:29:32.502Z,94533.63
2023-01-11T03:32:05.415Z,94536.66
2023-01-11T03:34:44.579Z,94506.06
2023-01-11T03:37:21.125Z,94510.97
2023-01-11T03:40:10.821Z,94532.47
2023-01-11T03:43:01.976Z,94534.94
2023-01-11T03:45:33.371Z,94531.28
2023-01-11T03:48:02.982Z,94531.22
2023-01-11T03:50:31.900Z,94516.72
2023-01-11T03:53:01.857Z,94514.69
2023-01-11T03:55:34.031Z,94539.78
2023-01-11T03:58:01.004Z,94485.63
2023-01-11T04:00:30.141Z,94538.09
2023-01-11T04:02:57.152Z,94512.63
2023-01-11T04:05:23.831Z,94529.03
2023-01-11T04:07:51.031Z,94508.53
2023-01-11T04:10:18.238Z,94524.81
2023-01-11T04:12:50.123Z,94549.81
2023-01-11T04:15:17.764Z,94526.03
2023-01-11T04:17:45.482Z,94489.31
2023-01-11T04:20:13.466Z,94496.50
2023-01-11T04:22:40.799Z,94558.50
2023-01-11T04:25:09.013Z,94564.22
2023-01-11T04:27:36.188Z,94552.91
2023-01-11T04:30:04.486Z,94558.63
2023-01-11T04:32:31.524Z,94559.19
2023-01-11T04:34:58.649Z,94523.22
2023-01-11T04:37:25.668Z,94521.50
2023-01-11T04:39:53.043Z,94554.16
2023-01-11T04:42:20.026Z,94585.78
2023-01-11T04:44:51.523Z,94578.81
2023-01-11T04:47:21.553Z,94561.81
2023-01-11T04:49:49.120Z,94561.53
2023-01-11T04:52:20.323Z,94552.38
2023-01-11T04:54:48.869Z,94589.53
2023-01-11T04:57:17.464Z,94544.19
2023-01-11T04:59:47.086Z,94600.94
2023-01-11T05:02:15.506Z,94557.06
2023-01-11T05:04:42.254Z,94605.56
2023-01-11T05:07:10.550Z,94522.31
2023-01-11T05:09:37.913Z,94579.88
2023-01-11T05:12:05.574Z,94602.25
2023-01-11T05:14:32.842Z,94608.47
2023-01-11T05:17:00.137Z,94602.13
2023-01-11T05:19:27.075Z,94621.91
2023-01-11T05:21:59.529Z,94555.25
2023-01-11T05:24:26.345Z,94587.84
2023-01-11T05:26:53.733Z,94578.06
2023-01-11T05:29:21.597Z,94589.88
2023-01-11T05:31:49.740Z,94523.44
2023-01-11T05:34:18.373Z,94609.00
2023-01-11T05:36:46.069Z,94629.84
2023-01-11T05:39:17.560Z,94611.63
2023-01-11T05:41:44.957Z,94602.47
2023-01-11T05:44:31.886Z,94607.38
2023-01-11T05:47:00.476Z,94587.19
2023-01-11T05:49:27.433Z,94637.06
2023-01-11T05:51:54.598Z,94605.91
2023-01-11T05:54:21.825Z,94651.28
2023-01-11T05:56:48.919Z,94567.09
2023-01-11T05:59:15.784Z,94613.50
2023-01-11T06:01:43.637Z,94654.47
2023-01-11T06:04:10.329Z,94659.97
2023-01-11T06:06:37.925Z,94656.78
2023-01-11T06:09:04.628Z,94660.09
2023-01-11T06:11:33.290Z,94648.47
2023-01-11T06:13:59.929Z,94652.03
2023-01-11T06:16:26.752Z,94668.78
2023-01-11T06:18:54.455Z,94614.84
2023-01-11T06:21:22.110Z,94627.53
2023-01-11T06:23:52.901Z,94634.72
2023-01-11T06:26:22.562Z,94669.22
2023-01-11T06:28:51.110Z,94653.13
2023-01-11T06:31:18.848Z,94685.63
2023-01-11T06:33:47.329Z,94684.03
2023-01-11T06:36:15.457Z,94686.03
2023-01-11T06:38:43.167Z,94698.66
2023-01-11T06:41:11.794Z,94691.75
2023-01-11T06:43:41.886Z,94703.53
2023-01-11T06:46:17.024Z,94694.03
2023-01-11T06:48:44.815Z,94661.34
2023-01-11T06:51:12.741Z,94703.00
2023-01-11T06:53:41.335Z,94701.16
2023-01-11T06:56:11.227Z,94712.31
2023-01-11T06:58:38.443Z,94698.81
2023-01-11T07:01:06.176Z,94703.22
2023-01-11T07:03:33.615Z,94719.75
2023-01-11T07:06:01.824Z,94713.19
2023-01-11T07:08:28.743Z,94729.13
2023-01-11T07:10:55.872Z,94731.69
2023-01-11T07:13:23.148Z,94741.19
2023-01-11T07:15:50.894Z,94741.88
2023-01-11T07:18:19.327Z,94735.97
2023-01-11T07:20:47.530Z,94744.38
2023-01-11T07:23:14.837Z,94752.09
2023-01-11T07:25:42.006Z,94727.31
2023-01-11T07:28:10.078Z,94723.69
2023-01-11T07:30:56.183Z,94716.63
2023-01-11T07:33:24.336Z,94697.09
2023-01-11T07:35:51.068Z,94730.91
2023-01-11T07:38:17.849Z,94755.34
2023-01-11T07:40:44.617Z,94711.69
2023-01-11T07:43:15.365Z,94761.06
2023-01-11T07:45:49.990Z,94759.31
2023-01-11T07:48:27.053Z,94785.94
2023-01-11T07:50:54.863Z,94752.78
2023-01-11T07:53:25.586Z,94763.97
2023-01-11T07:55:52.872Z,94794.13
2023-01-11T07:58:20.234Z,94807.31
2023-01-11T08:00:47.434Z,94794.44
2023-01-11T08:03:15.213Z,94784.00
2023-01-11T08:05:41.950Z,94796.84
2023-01-11T08:08:09.513Z,94788.56
2023-01-11T08:10:36.324Z,94788.44
2023-01-11T08:13:21.796Z,94816.03
2023-01-11T08:15:49.042Z,94800.00
2023-01-11T08:18:17.798Z,94813.75
2023-01-11T08:20:46.076Z,94815.31
2023-01-11T08:23:13.034Z,94814.28
2023-01-11T08:25:40.290Z,94832.34
2023-01-11T08:28:09.467Z,94837.72
2023-01-11T08:30:37.405Z,94786.53
2023-01-11T08:33:05.444Z,94836.38
2023-01-11T08:35:37.568Z,94849.94
2023-01-11T08:38:04.422Z,94791.41
2023-01-11T08:40:31.428Z,94855.09
2023-01-11T08:42:58.111Z,94860.94
2023-01-11T08:45:25.728Z,94852.69
2023-01-11T08:47:53.366Z,94794.88
2023-01-11T08:50:22.246Z,94869.78
2023-01-11T08:52:51.340Z,94850.53
2023-01-11T08:55:20.126Z,94864.41
2023-01-11T08:57:47.614Z,94852.91
2023-01-11T09:00:14.956Z,94789.25
2023-01-11T09:02:42.579Z,94854.56
2023-01-11T09:05:10.066Z,94774.13
2023-01-11T09:07:36.832Z,94871.56
2023-01-11T09:10:03.981Z,94858.44
2023-01-11T09:12:32.672Z,94876.31
2023-01-11T09:14:59.447Z,94860.13
2023-01-11T09:17:27.048Z,94864.31
2023-01-11T09:19:54.980Z,94855.25
2023-01-11T09:22:21.947Z,94829.75
2023-01-11T09:24:49.190Z,94855.66
2023-01-11T09:27:16.543Z,94819.50
2023-01-11T09:29:43.899Z,94829.09
2023-01-11T09:32:10.781Z,94822.00
2023-01-11T09:34:38.228Z,94825.66
2023-01-11T09:37:07.111Z,94804.00
2023-01-11T09:39:35.172Z,94806.59
2023-01-11T09:42:32.531Z,94817.97
2023-01-11T09:45:07.212Z,94893.84
2023-01-11T09:47:41.459Z,94886.66
2023-01-11T09:50:14.694Z,94886.34
2023-01-11T09:52:46.164Z,94787.78
2023-01-11T09:55:24.668Z,94846.50
2023-01-11T09:58:16.818Z,94884.78
2023-01-11T10:00:49.929Z,94877.00
2023-01-11T10:03:46.004Z,94832.78
2023-01-11T10:06:25.694Z,94815.13
2023-01-11T10:18:30.558Z,94884.22
2023-01-11T10:18:40.055Z,94870.13
2023-01-11T10:20:44.052Z,94875.00
2023-01-11T10:23:21.369Z,94884.16
2023-01-11T10:25:51.962Z,94889.88
2023-01-11T10:28:32.040Z,94870.59
2023-01-11T10:30:58.779Z,94811.50
2023-01-11T10:34:10.123Z,94892.94
2023-01-11T10:37:35.746Z,94879.22
2023-01-11T10:40:29.703Z,94882.34
2023-01-11T10:43:22.305Z,94878.97
2023-01-11T10:45:54.627Z,94878.47
2023-01-11T10:48:33.420Z,94879.03
2023-01-11T10:51:24.998Z,94875.97
2023-01-11T10:53:55.053Z,94887.22
2023-01-11T10:56:33.240Z,94857.59
2023-01-11T10:59:22.341Z,94764.50
2023-01-11T11:02:20.514Z,94846.28
2023-01-11T11:04:59.949Z,94871.34
2023-01-11T11:07:58.352Z,94843.59
2023-01-11T11:10:37.518Z,94847.63
2023-01-11T11:13:19.677Z,94854.44
2023-01-11T11:16:04.814Z,94866.44
2023-01-11T11:18:32.153Z,94854.56
2023-01-11T11:21:04.696Z,94863.41
2023-01-11T11:23:31.703Z,94864.47
2023-01-11T11:26:02.279Z,94867.53
2023-01-11T11:28:31.882Z,94774.25
2023-01-11T11:31:02.500Z,94834.16
2023-01-11T11:33:40.039Z,94854.75
2023-01-11T11:36:13.620Z,94866.31
2023-01-11T11:38:42.612Z,94860.28
2023-01-11T11:41:15.674Z,94872.69
2023-01-11T11:43:47.418Z,94864.47
2023-01-11T11:46:18.837Z,94878.03
2023-01-11T11:49:11.341Z,94885.59
2023-01-11T11:51:39.217Z,94884.47
2023-01-11T11:54:06.226Z,94875.75
2023-01-11T11:56:41.447Z,94868.00
2023-01-11T11:59:13.912Z,94877.28
2023-01-11T12:01:47.179Z,94885.72
2023-01-11T12:04:31.758Z,94890.91
2023-01-11T12:07:15.151Z,94870.38
2023-01-11T12:09:49.273Z,94881.28
2023-01-11T12:12:21.270Z,94883.56
2023-01-11T12:15:09.391Z,94891.19
2023-01-11T12:17:36.964Z,94890.56
2023-01-11T12:20:23.459Z,94895.69
2023-01-11T12:22:53.853Z,94905.56
2023-01-11T12:25:24.246Z,94900.28
2023-01-11T12:28:20.386Z,94898.28
2023-01-11T12:30:54.748Z,94893.03
2023-01-11T12:33:21.480Z,94892.63
2023-01-11T12:36:03.702Z,94883.19
2023-01-11T12:38:39.771Z,94902.41
2023-01-11T12:41:19.607Z,94910.19
2023-01-11T12:44:11.021Z,94914.78
2023-01-11T12:46:53.020Z,94908.59
2023-01-11T12:49:38.183Z,94902.09
2023-01-11T12:52:30.428Z,94912.25
2023-01-11T12:55:25.013Z,94904.13
2023-01-11T12:58:14.252Z,94917.16
2023-01-11T13:00:53.746Z,94912.19
2023-01-11T13:03:20.873Z,94911.94
2023-01-11T13:06:12.358Z,94919.94
2023-01-11T13:08:54.195Z,94903.94
2023-01-11T13:11:38.156Z,94920.19
2023-01-11T13:14:14.605Z,94921.56
2023-01-11T13:17:15.355Z,94930.00
2023-01-11T13:19:54.496Z,94932.03
2023-01-11T13:22:28.891Z,94892.59
2023-01-11T13:24:59.333Z,94921.09
2023-01-11T13:27:28.844Z,94941.38
2023-01-11T13:29:59.815Z,94915.38
2023-01-11T13:32:33.174Z,94877.97
2023-01-11T13:35:15.880Z,94915.22
2023-01-11T13:38:30.650Z,94927.16
2023-01-11T13:41:07.939Z,94944.75
2023-01-11T13:43:56.071Z,94946.78
2023-01-11T13:46:32.197Z,94941.66
2023-01-11T13:49:11.345Z,94947.81
2023-01-11T13:51:46.648Z,94949.50
2023-01-11T13:54:26.932Z,94857.19
2023-01-11T13:57:02.564Z,94913.94
2023-01-11T13:59:46.501Z,94923.69
2023-01-11T14:02:19.046Z,94949.38
2023-01-11T14:05:11.126Z,94955.09
2023-01-11T14:07:37.948Z,94945.22
2023-01-11T14:10:15.379Z,94905.72
2023-01-11T14:13:10.817Z,94950.97
2023-01-11T14:15:44.580Z,94949.19
2023-01-11T14:18:52.409Z,94956.50
2023-01-11T14:21:41.610Z,94934.44
2023-01-11T14:24:11.327Z,94946.16
2023-01-11T14:27:00.275Z,94950.63
2023-01-11T14:30:05.716Z,94964.22
2023-01-11T14:32:40.541Z,94965.06
2023-01-11T14:35:39.917Z,94974.97
2023-01-11T14:38:35.869Z,94974.13
2023-01-11T14:41:26.856Z,94981.47
2023-01-11T14:44:30.380Z,94908.34
2023-01-11T14:47:24.764Z,94989.91
2023-01-11T14:49:53.716Z,94995.97
2023-01-11T14:52:39.142Z,94930.66
2023-01-11T14:55:17.889Z,94953.66
2023-01-11T14:58:01.922Z,94985.59
2023-01-11T15:00:28.687Z,95002.03
2023-01-11T15:03:01.451Z,94994.78
2023-01-11T15:05:31.579Z,94997.88
2023-01-11T15:08:13.577Z,95002.09
2023-01-11T15:11:20.871Z,95009.59
2023-01-11T15:13:56.190Z,94974.88
2023-01-11T15:17:03.921Z,94984.06
2023-01-11T15:19:34.144Z,94992.84
2023-01-11T15:22:04.681Z,94998.84
2023-01-11T15:24:43.143Z,95013.09
2023-01-11T15:27:37.556Z,94959.91
2023-01-11T15:30:07.699Z,95011.38
2023-01-11T15:32:36.280Z,95015.81
2023-01-11T15:35:30.958Z,95017.28
2023-01-11T15:38:21.095Z,95021.25
2023-01-11T15:40:48.381Z,95000.09
2023-01-11T15:43:21.119Z,95014.66
2023-01-11T15:46:42.557Z,95029.06
2023-01-11T15:49:38.007Z,94972.94
2023-01-11T15:52:37.050Z,95022.00
2023-01-11T15:55:35.410Z,95030.91
2023-01-11T15:58:11.707Z,95029.09
2023-01-11T16:00:47.675Z,95036.00
2023-01-11T16:03:42.459Z,95039.38
2023-01-11T16:06:33.809Z,95046.41
2023-01-11T16:09:26.395Z,95009.88
2023-01-11T16:11:56.379Z,95056.47
2023-01-11T16:14:55.948Z,95048.69
2023-01-11T16:17:24.903Z,95043.91
2023-01-11T16:19:59.315Z,95045.28
2023-01-11T16:22:28.456Z,95003.06
2023-01-11T16:25:05.481Z,94996.66
2023-01-11T16:27:35.120Z,94992.72
2023-01-11T16:30:02.852Z,94969.94
2023-01-11T16:32:35.619Z,95018.13
2023-01-11T16:35:16.928Z,95061.84
2023-01-11T16:37:55.381Z,95069.91
2023-01-11T16:40:30.710Z,95039.13
2023-01-11T16:43:16.211Z,95083.22
2023-01-11T16:45:44.685Z,95078.56
2023-01-11T16:48:19.876Z,95050.50
2023-01-11T16:51:03.889Z,94980.28
2023-01-11T16:53:42.701Z,94973.00
2023-01-11T16:56:20.483Z,95025.75
2023-01-11T16:59:06.045Z,95054.72
2023-01-11T17:01:59.311Z,95087.06
2023-01-11T17:04:41.418Z,95049.41
2023-01-11T17:07:23.146Z,95096.06
2023-01-11T17:09:50.430Z,95093.91
2023-01-11T17:12:26.015Z,95075.22
2023-01-11T17:15:03.327Z,95100.69
2023-01-11T17:17:36.295Z,95076.47
2023-01-11T17:20:04.663Z,95081.19
2023-01-11T17:22:34.285Z,95113.41
2023-01-11T17:25:16.441Z,95082.59
2023-01-11T17:27:51.057Z,95067.22
2023-01-11T17:30:21.997Z,95028.50
2023-01-11T17:32:51.539Z,95077.44
2023-01-11T17:35:27.669Z,94986.78
2023-01-11T17:37:58.213Z,95033.84
2023-01-11T17:40:38.306Z,95080.34
2023-01-11T17:43:32.576Z,95127.91
2023-01-11T17:46:02.821Z,95045.25
2023-01-11T17:48:30.578Z,94994.81
2023-01-11T17:51:00.243Z,95040.06
2023-01-11T17:53:32.551Z,95131.03
2023-01-11T17:56:00.414Z,95132.22
2023-01-11T17:58:29.431Z,95127.91
2023-01-11T18:01:08.426Z,95138.25
2023-01-11T18:03:49.054Z,95128.25
2023-01-11T18:06:16.297Z,95130.84
2023-01-11T18:08:48.823Z,94991.91
2023-01-11T18:11:23.455Z,95141.69
2023-01-11T18:13:55.930Z,95020.66
2023-01-11T18:16:23.376Z,95023.69
2023-01-11T18:18:52.631Z,95159.78
2023-01-11T18:21:25.512Z,95130.91
2023-01-11T18:24:24.234Z,95142.56
2023-01-11T18:27:15.374Z,95143.66
2023-01-11T18:29:47.009Z,95126.91
2023-01-11T18:32:15.290Z,95131.09
2023-01-11T18:34:44.360Z,95127.63
2023-01-11T18:37:11.699Z,95122.34
2023-01-11T18:39:53.715Z,95115.63
2023-01-11T18:42:24.908Z,95111.31
2023-01-11T18:44:51.782Z,95137.69
2023-01-11T18:47:22.681Z,95139.06
2023-01-11T18:49:51.178Z,95129.31
2023-01-11T18:52:20.604Z,95132.91
2023-01-11T18:54:47.911Z,95135.22
2023-01-11T18:57:14.805Z,95128.69
2023-01-11T18:59:41.632Z,95099.47
2023-01-11T19:02:23.798Z,95147.28
2023-01-11T19:04:52.308Z,95119.88
2023-01-11T19:07:20.207Z,95151.34
2023-01-11T19:09:47.232Z,95148.91
2023-01-11T19:12:14.873Z,95157.69
2023-01-11T19:14:41.990Z,95139.06
2023-01-11T19:17:12.408Z,95134.03
2023-01-11T19:19:39.457Z,95163.31
2023-01-11T19:22:06.743Z,95157.84
2023-01-11T19:24:33.755Z,95150.34
2023-01-11T19:27:00.605Z,95172.91
2023-01-11T19:29:27.620Z,95154.38
2023-01-11T19:31:55.855Z,95176.53
2023-01-11T19:34:23.068Z,95177.66
2023-01-11T19:36:51.740Z,95183.50
2023-01-11T19:39:19.138Z,95191.16
2023-01-11T19:41:55.207Z,95196.06
2023-01-11T19:44:22.599Z,95196.94
2023-01-11T19:46:56.742Z,95180.47
2023-01-11T19:49:24.192Z,95165.22
2023-01-11T19:51:51.218Z,95173.28
2023-01-11T19:54:20.825Z,95196.28
2023-01-11T19:56:49.413Z,95199.66
2023-01-11T19:59:16.456Z,95160.84
2023-01-11T20:01:44.103Z,95195.63
2023-01-11T20:04:12.978Z,95189.47
2023-01-11T20:06:50.353Z,95191.41
2023-01-11T20:09:18.774Z,95204.47
2023-01-11T20:11:46.622Z,95166.88
2023-01-11T20:14:13.433Z,95172.28
2023-01-11T20:16:40.226Z,95190.13
2023-01-11T20:19:07.300Z,95193.16
2023-01-11T20:21:34.511Z,95163.50
2023-01-11T20:24:10.093Z,95190.25
2023-01-11T20:26:36.965Z,95189.06
2023-01-11T20:29:05.611Z,95201.56
2023-01-11T20:31:35.187Z,95192.75
2023-01-11T20:34:07.922Z,95205.03
2023-01-11T20:36:35.191Z,95210.06
2023-01-11T20:39:01.907Z,95205.81
2023-01-11T20:41:47.252Z,95203.09
2023-01-11T20:44:20.124Z,95182.16
2023-01-11T20:46:48.434Z,95189.91
2023-01-11T20:49:16.301Z,95188.03
2023-01-11T20:51:43.854Z,95189.16
2023-01-11T20:54:11.200Z,95191.06
2023-01-11T20:56:38.749Z,95179.50
2023-01-11T20:59:07.424Z,95164.19
2023-01-11T21:01:34.593Z,95191.22
2023-01-11T21:04:03.824Z,95178.25
2023-01-11T21:06:32.412Z,95176.06
2023-01-11T21:09:00.512Z,95171.41
2023-01-11T21:11:28.205Z,95187.06
2023-01-11T21:13:56.097Z,95160.16
2023-01-11T21:16:27.979Z,95157.84
2023-01-11T21:19:03.224Z,95174.75
2023-01-11T21:21:32.288Z,95175.91
2023-01-11T21:24:01.718Z,95101.97
2023-01-11T21:26:29.555Z,95175.91
2023-01-11T21:28:59.450Z,95180.59
2023-01-11T21:31:28.425Z,95177.84
2023-01-11T21:33:55.392Z,95171.56
2023-01-11T21:36:24.045Z,95174.19
2023-01-11T21:38:51.231Z,95151.69
2023-01-11T21:41:43.810Z,95188.91
2023-01-11T21:44:11.191Z,95195.06
2023-01-11T21:46:38.128Z,95184.81
2023-01-11T21:49:05.300Z,95183.69
2023-01-11T21:51:32.307Z,95183.28
2023-01-11T21:54:22.613Z,95183.00
2023-01-11T21:56:52.480Z,95189.19
2023-01-11T21:59:20.389Z,95150.66
2023-01-11T22:01:49.257Z,95187.25
2023-01-11T22:04:18.052Z,95184.22
2023-01-11T22:06:56.649Z,95152.16
2023-01-11T22:09:27.421Z,95189.69
2023-01-11T22:11:55.445Z,95168.59
2023-01-11T22:14:22.136Z,95174.78
2023-01-11T22:16:48.820Z,95173.63
2023-01-11T22:19:15.850Z,95145.91
2023-01-11T22:21:42.559Z,95168.06
2023-01-11T22:24:11.516Z,95166.09
2023-01-11T22:26:39.155Z,95178.69
2023-01-11T22:29:16.320Z,95167.28
2023-01-11T22:31:46.981Z,95159.25
2023-01-11T22:34:14.755Z,95157.75
2023-01-11T22:36:42.214Z,95171.19
2023-01-11T22:39:09.146Z,95165.06
2023-01-11T22:41:35.995Z,95166.63
2023-01-11T22:44:03.018Z,95160.16
2023-01-11T22:46:29.916Z,95165.88
2023-01-11T22:48:56.471Z,95170.44
2023-01-11T22:51:25.325Z,95169.69
2023-01-11T22:53:54.130Z,95139.19
2023-01-11T22:56:23.746Z,95167.41
2023-01-11T22:58:51.190Z,95160.19
2023-01-11T23:01:20.820Z,95139.63
2023-01-11T23:03:47.875Z,95162.91
2023-01-11T23:06:20.503Z,95139.66
2023-01-11T23:08:47.552Z,95132.41
2023-01-11T23:11:38.322Z,95177.88
2023-01-11T23:14:06.737Z,95172.91
2023-01-11T23:16:33.660Z,95169.03
2023-01-11T23:19:00.604Z,95157.94
2023-01-11T23:21:27.813Z,95170.16
2023-01-11T23:23:54.551Z,95177.78
2023-01-11T23:26:21.785Z,95158.63
2023-01-11T23:28:50.681Z,95166.94
2023-01-11T23:31:20.567Z,95164.97
2023-01-11T23:33:51.942Z,95166.53
2023-01-11T23:36:20.701Z,95142.53
2023-01-11T23:38:48.306Z,95162.31
2023-01-11T23:41:35.663Z,95170.00
2023-01-11T23:44:05.245Z,95163.78
2023-01-11T23:46:50.900Z,95174.16
2023-01-11T23:49:17.983Z,95151.66
2023-01-11T23:51:45.249Z,95158.91
2023-01-11T23:54:12.231Z,95163.38
2023-01-11T23:56:39.585Z,95152.34
2023-01-11T23:59:07.447Z,95155.34
